createdAt,value
2017-11-07T00:00:30.006Z,91.66
2017-11-07T00:01:10.582Z,91.56
2017-11-07T00:01:51.168Z,91.75
2017-11-07T00:02:31.784Z,91.75
2017-11-07T00:03:12.359Z,91.66
2017-11-07T00:03:52.948Z,91.66
2017-11-07T00:04:33.541Z,91.75
2017-11-07T00:05:14.132Z,91.47
2017-11-07T00:05:54.749Z,91.66
2017-11-07T00:06:35.358Z,91.47
2017-11-07T00:07:16.028Z,91.66
2017-11-07T00:07:56.640Z,91.47
2017-11-07T00:08:37.243Z,91.75
2017-11-07T00:09:17.825Z,91.66
2017-11-07T00:09:58.438Z,91.56
2017-11-07T00:10:39.021Z,91.94
2017-11-07T00:11:19.599Z,91.38
2017-11-07T00:12:00.195Z,91.56
2017-11-07T00:12:40.834Z,91.75
2017-11-07T00:13:21.453Z,91.66
2017-11-07T00:14:02.005Z,91.66
2017-11-07T00:14:42.593Z,91.66
2017-11-07T00:15:23.164Z,91.56
2017-11-07T00:16:03.838Z,91.47
2017-11-07T00:16:44.408Z,91.66
2017-11-07T00:17:25.019Z,91.75
2017-11-07T00:18:05.602Z,91.94
2017-11-07T00:18:46.200Z,91.94
2017-11-07T00:19:26.837Z,91.66
2017-11-07T00:20:07.400Z,91.56
2017-11-07T00:20:47.999Z,91.56
2017-11-07T00:21:28.610Z,91.94
2017-11-07T00:22:09.200Z,91.75
2017-11-07T00:22:49.810Z,91.56
2017-11-07T00:23:30.422Z,92.04
2017-11-07T00:24:11.003Z,91.75
2017-11-07T00:24:51.582Z,91.66
2017-11-07T00:25:32.157Z,91.85
2017-11-07T00:26:12.758Z,91.66
2017-11-07T00:26:53.345Z,91.85
2017-11-07T00:27:33.928Z,91.85
2017-11-07T00:28:14.526Z,91.94
2017-11-07T00:28:55.115Z,91.94
2017-11-07T00:29:35.694Z,91.56
2017-11-07T00:30:16.295Z,91.09
2017-11-07T00:30:56.861Z,91.19
2017-11-07T00:31:37.488Z,91.47
2017-11-07T00:32:18.074Z,91.66
2017-11-07T00:32:58.674Z,91.66
2017-11-07T00:33:39.256Z,91.66
2017-11-07T00:34:19.839Z,91.66
2017-11-07T00:35:00.424Z,91.56
2017-11-07T00:35:41.009Z,91.85
2017-11-07T00:36:21.611Z,91.75
2017-11-07T00:37:02.209Z,91.66
2017-11-07T00:37:42.789Z,91.47
2017-11-07T00:38:23.372Z,91.66
2017-11-07T00:39:04.004Z,91.47
2017-11-07T00:39:44.585Z,91.66
2017-11-07T00:40:25.158Z,91.66
2017-11-07T00:41:05.730Z,91.66
2017-11-07T00:41:46.321Z,91.66
2017-11-07T00:42:26.907Z,91.85
2017-11-07T00:43:07.470Z,91.75
2017-11-07T00:43:48.045Z,91.94
2017-11-07T00:44:28.626Z,91.94
2017-11-07T00:45:09.247Z,91.94
2017-11-07T00:45:49.823Z,91.94
2017-11-07T00:46:30.409Z,92.04
2017-11-07T00:47:10.990Z,91.66
2017-11-07T00:47:51.595Z,91.66
2017-11-07T00:48:32.209Z,91.85
2017-11-07T00:49:12.780Z,91.75
2017-11-07T00:49:53.357Z,91.85
2017-11-07T00:50:33.949Z,91.66
2017-11-07T00:51:14.531Z,91.75
2017-11-07T00:51:55.116Z,91.85
2017-11-07T00:52:35.706Z,91.75
2017-11-07T00:53:16.270Z,91.85
2017-11-07T00:53:56.859Z,91.75
2017-11-07T00:54:37.430Z,91.75
2017-11-07T00:55:18.004Z,91.75
2017-11-07T00:55:58.566Z,91.85
2017-11-07T00:56:39.138Z,91.56
2017-11-07T00:57:19.747Z,91.66
2017-11-07T00:58:00.327Z,91.75
2017-11-07T00:58:40.930Z,91.47
2017-11-07T00:59:21.528Z,91.38
2017-11-07T01:00:02.099Z,91.85
2017-11-07T01:00:42.678Z,91.85
2017-11-07T01:01:23.248Z,92.04
2017-11-07T01:02:03.844Z,91.85
2017-11-07T01:02:44.406Z,91.38
2017-11-07T01:03:25.001Z,91.94
2017-11-07T01:04:05.599Z,91.66
2017-11-07T01:04:46.189Z,91.56
2017-11-07T01:05:26.764Z,92.13
2017-11-07T01:06:07.352Z,91.94
2017-11-07T01:06:47.936Z,91.47
2017-11-07T01:07:28.506Z,91.47
2017-11-07T01:08:09.108Z,91.38
2017-11-07T01:08:49.684Z,91.94
2017-11-07T01:09:30.261Z,91.85
2017-11-07T01:10:10.913Z,91.47
2017-11-07T01:10:51.488Z,91.75
2017-11-07T01:11:32.064Z,91.38
2017-11-07T01:12:12.674Z,91.38
2017-11-07T01:12:53.268Z,92.04
2017-11-07T01:13:33.853Z,91.94
2017-11-07T01:14:14.466Z,91.38
2017-11-07T01:14:55.054Z,91.66
2017-11-07T01:15:35.630Z,91.56
2017-11-07T01:16:16.214Z,91.85
2017-11-07T01:16:56.797Z,92.04
2017-11-07T01:17:37.386Z,91.94
2017-11-07T01:18:17.971Z,91.85
2017-11-07T01:18:58.547Z,91.66
2017-11-07T01:19:39.134Z,91.47
2017-11-07T01:20:19.747Z,91.38
2017-11-07T01:21:00.340Z,91.66
2017-11-07T01:21:40.950Z,91.85
2017-11-07T01:22:21.575Z,91.66
2017-11-07T01:23:02.144Z,92.04
2017-11-07T01:23:42.715Z,92.04
2017-11-07T01:24:23.301Z,91.66
2017-11-07T01:25:05.005Z,91.66
2017-11-07T01:25:45.598Z,91.56
2017-11-07T01:26:26.182Z,91.56
2017-11-07T01:27:06.788Z,91.85
2017-11-07T01:27:47.375Z,91.85
2017-11-07T01:28:27.943Z,91.94
2017-11-07T01:29:08.522Z,91.94
2017-11-07T01:29:49.103Z,91.38
2017-11-07T01:30:29.690Z,91.75
2017-11-07T01:31:10.285Z,91.94
2017-11-07T01:31:50.861Z,91.94
2017-11-07T01:32:31.464Z,91.94
2017-11-07T01:33:12.071Z,91.66
2017-11-07T01:33:52.654Z,91.56
2017-11-07T01:34:33.233Z,92.04
2017-11-07T01:35:13.822Z,91.94
2017-11-07T01:35:54.382Z,91.56
2017-11-07T01:36:34.987Z,91.66
2017-11-07T01:37:15.552Z,91.38
2017-11-07T01:37:56.165Z,91.56
2017-11-07T01:38:36.738Z,91.56
2017-11-07T01:39:17.296Z,91.66
2017-11-07T01:39:57.885Z,91.66
2017-11-07T01:40:38.455Z,92.04
2017-11-07T01:41:19.038Z,91.94
2017-11-07T01:41:59.630Z,91.56
2017-11-07T01:42:40.219Z,92.23
2017-11-07T01:43:20.798Z,91.94
2017-11-07T01:44:01.378Z,91.94
2017-11-07T01:44:41.951Z,91.94
2017-11-07T01:45:22.513Z,91.66
2017-11-07T01:46:03.101Z,91.66
2017-11-07T01:46:43.682Z,91.94
2017-11-07T01:47:24.267Z,91.94
2017-11-07T01:48:04.847Z,92.42
2017-11-07T01:48:45.421Z,92.32
2017-11-07T01:49:25.997Z,91.75
2017-11-07T01:50:06.583Z,92.13
2017-11-07T01:50:47.152Z,92.23
2017-11-07T01:51:27.749Z,92.32
2017-11-07T01:52:08.322Z,92.32
2017-11-07T01:52:48.903Z,92.04
2017-11-07T01:53:29.474Z,92.51
2017-11-07T01:54:10.049Z,92.23
2017-11-07T01:54:50.685Z,92.13
2017-11-07T01:55:31.252Z,92.61
2017-11-07T01:56:11.814Z,92.42
2017-11-07T01:56:52.406Z,92.32
2017-11-07T01:57:32.980Z,92.32
2017-11-07T01:58:13.567Z,92.04
2017-11-07T01:58:54.142Z,92.04
2017-11-07T01:59:34.726Z,92.23
2017-11-07T02:00:15.288Z,92.23
2017-11-07T02:00:55.867Z,92.61
2017-11-07T02:01:36.454Z,92.61
2017-11-07T02:02:17.036Z,92.61
2017-11-07T02:02:57.605Z,92.61
2017-11-07T02:03:38.183Z,92.51
2017-11-07T02:04:18.761Z,92.32
2017-11-07T02:04:59.343Z,92.51
2017-11-07T02:05:39.927Z,92.51
2017-11-07T02:06:20.488Z,92.51
2017-11-07T02:07:01.064Z,92.51
2017-11-07T02:07:41.664Z,92.51
2017-11-07T02:08:22.231Z,92.51
2017-11-07T02:09:02.826Z,92.71
2017-11-07T02:09:43.394Z,92.32
2017-11-07T02:10:23.968Z,92.51
2017-11-07T02:11:04.541Z,92.8
2017-11-07T02:11:45.247Z,92.51
2017-11-07T02:12:25.809Z,92.61
2017-11-07T02:13:06.419Z,92.23
2017-11-07T02:13:47.015Z,92.32
2017-11-07T02:14:27.583Z,92.13
2017-11-07T02:15:08.163Z,92.23
2017-11-07T02:15:48.757Z,92.13
2017-11-07T02:16:29.341Z,92.13
2017-11-07T02:17:09.908Z,92.04
2017-11-07T02:17:50.494Z,92.23
2017-11-07T02:18:31.092Z,92.13
2017-11-07T02:19:11.679Z,92.04
2017-11-07T02:19:52.257Z,92.61
2017-11-07T02:20:32.833Z,92.51
2017-11-07T02:21:13.414Z,92.32
2017-11-07T02:21:53.977Z,92.32
2017-11-07T02:22:34.579Z,92.04
2017-11-07T02:23:15.163Z,92.47
2017-11-07T02:23:55.773Z,92.61
2017-11-07T02:24:36.365Z,92.51
2017-11-07T02:25:16.976Z,92.32
2017-11-07T02:25:57.588Z,92.42
2017-11-07T02:26:38.165Z,92.51
2017-11-07T02:27:18.779Z,92.47
2017-11-07T02:27:59.349Z,92.61
2017-11-07T02:28:39.948Z,92.47
2017-11-07T02:29:20.508Z,92.47
2017-11-07T02:30:01.055Z,92.28
2017-11-07T02:30:41.629Z,92.8
2017-11-07T02:31:22.205Z,92.8
2017-11-07T02:32:02.784Z,92.51
2017-11-07T02:32:43.379Z,92.61
2017-11-07T02:33:23.955Z,92.47
2017-11-07T02:34:04.551Z,92.51
2017-11-07T02:34:45.109Z,92.47
2017-11-07T02:35:25.698Z,92.61
2017-11-07T02:36:06.320Z,92.56
2017-11-07T02:36:46.938Z,92.8
2017-11-07T02:37:27.512Z,92.75
2017-11-07T02:38:08.084Z,92.66
2017-11-07T02:38:48.667Z,92.51
2017-11-07T02:39:29.234Z,92.47
2017-11-07T02:40:09.844Z,92.8
2017-11-07T02:40:50.465Z,92.51
2017-11-07T02:41:31.058Z,92.32
2017-11-07T02:42:11.682Z,92.8
2017-11-07T02:42:52.263Z,92.47
2017-11-07T02:43:32.842Z,92.85
2017-11-07T02:44:13.422Z,92.18
2017-11-07T02:44:53.992Z,92.28
2017-11-07T02:45:34.590Z,91.99
2017-11-07T02:46:15.198Z,92.13
2017-11-07T02:46:55.783Z,92.32
2017-11-07T02:47:36.357Z,92.23
2017-11-07T02:48:16.951Z,92.13
2017-11-07T02:48:57.554Z,91.99
2017-11-07T02:49:38.149Z,92.42
2017-11-07T02:50:18.718Z,92.42
2017-11-07T02:50:59.288Z,91.61
2017-11-07T02:51:39.874Z,91.61
2017-11-07T02:52:20.454Z,91.8
2017-11-07T02:53:01.022Z,92.28
2017-11-07T02:53:41.608Z,92.37
2017-11-07T02:54:22.198Z,92.28
2017-11-07T02:55:02.864Z,92.09
2017-11-07T02:55:43.395Z,92.18
2017-11-07T02:56:23.971Z,92.18
2017-11-07T02:57:04.553Z,92.28
2017-11-07T02:57:45.136Z,92.28
2017-11-07T02:58:25.727Z,92.47
2017-11-07T02:59:06.284Z,91.61
2017-11-07T02:59:46.870Z,92.28
2017-11-07T03:00:27.482Z,91.52
2017-11-07T03:01:08.079Z,92.28
2017-11-07T03:01:48.669Z,91.89
2017-11-07T03:02:29.244Z,92.37
2017-11-07T03:03:09.806Z,91.61
2017-11-07T03:03:50.399Z,91.61
2017-11-07T03:04:30.973Z,92.37
2017-11-07T03:05:11.697Z,92.37
2017-11-07T03:05:52.282Z,92.18
2017-11-07T03:06:32.858Z,92.09
2017-11-07T03:07:13.460Z,92.28
2017-11-07T03:07:54.051Z,91.99
2017-11-07T03:08:34.624Z,92.09
2017-11-07T03:09:15.190Z,92.56
2017-11-07T03:09:55.781Z,92.47
2017-11-07T03:10:36.358Z,92.75
2017-11-07T03:11:16.982Z,92.28
2017-11-07T03:11:57.551Z,92.47
2017-11-07T03:12:38.140Z,92.47
2017-11-07T03:13:18.722Z,92.94
2017-11-07T03:13:59.286Z,92.37
2017-11-07T03:14:39.859Z,92.47
2017-11-07T03:15:20.436Z,92.47
2017-11-07T03:16:01.044Z,92.56
2017-11-07T03:16:41.641Z,92.75
2017-11-07T03:17:22.207Z,92.75
2017-11-07T03:18:02.776Z,92.47
2017-11-07T03:18:43.344Z,92.28
2017-11-07T03:19:23.944Z,92.56
2017-11-07T03:20:04.576Z,92.18
2017-11-07T03:20:45.128Z,91.99
2017-11-07T03:21:25.706Z,91.99
2017-11-07T03:22:06.281Z,92.28
2017-11-07T03:22:46.864Z,92.18
2017-11-07T03:23:27.441Z,92.09
2017-11-07T03:24:08.012Z,92.37
2017-11-07T03:24:48.617Z,92.37
2017-11-07T03:25:29.191Z,92.47
2017-11-07T03:26:09.756Z,92.47
2017-11-07T03:26:50.331Z,92.47
2017-11-07T03:27:30.914Z,92.75
2017-11-07T03:28:11.491Z,92.47
2017-11-07T03:28:52.114Z,92.47
2017-11-07T03:29:32.708Z,92.94
2017-11-07T03:30:13.298Z,92.28
2017-11-07T03:30:54.838Z,92.18
2017-11-07T03:31:35.450Z,92.28
2017-11-07T03:32:16.021Z,92.18
2017-11-07T03:32:56.609Z,92.18
2017-11-07T03:33:37.177Z,92.18
2017-11-07T03:34:17.753Z,92.94
2017-11-07T03:34:58.337Z,92.75
2017-11-07T03:35:38.926Z,92.28
2017-11-07T03:36:19.507Z,92.37
2017-11-07T03:37:00.088Z,92.47
2017-11-07T03:37:40.685Z,92.75
2017-11-07T03:38:21.264Z,92.66
2017-11-07T03:39:01.830Z,92.94
2017-11-07T03:39:42.413Z,92.18
2017-11-07T03:40:22.997Z,92.28
2017-11-07T03:41:03.584Z,92.09
2017-11-07T03:41:44.158Z,92.09
2017-11-07T03:42:24.761Z,92.18
2017-11-07T03:43:05.349Z,92.47
2017-11-07T03:43:46.060Z,92.28
2017-11-07T03:44:26.548Z,92.47
2017-11-07T03:45:07.156Z,91.89
2017-11-07T03:45:47.743Z,91.61
2017-11-07T03:46:28.332Z,91.8
2017-11-07T03:47:08.918Z,91.8
2017-11-07T03:47:49.480Z,91.99
2017-11-07T03:48:30.081Z,91.8
2017-11-07T03:49:10.661Z,91.8
2017-11-07T03:49:51.247Z,91.8
2017-11-07T03:50:31.826Z,91.89
2017-11-07T03:51:12.991Z,91.89
2017-11-07T03:51:53.557Z,91.52
2017-11-07T03:52:34.155Z,91.99
2017-11-07T03:53:14.722Z,92.28
2017-11-07T03:53:55.331Z,92.47
2017-11-07T03:54:35.903Z,92.37
2017-11-07T03:55:16.471Z,91.89
2017-11-07T03:55:57.057Z,91.52
2017-11-07T03:56:37.646Z,91.71
2017-11-07T03:57:18.234Z,91.99
2017-11-07T03:57:58.823Z,91.71
2017-11-07T03:58:39.412Z,91.8
2017-11-07T03:59:19.992Z,91.89
2017-11-07T04:00:00.564Z,91.33
2017-11-07T04:00:41.130Z,91.61
2017-11-07T04:01:21.704Z,91.61
2017-11-07T04:02:02.444Z,91.61
2017-11-07T04:02:42.909Z,91.99
2017-11-07T04:03:23.478Z,91.33
2017-11-07T04:04:04.061Z,91.61
2017-11-07T04:04:44.640Z,91.71
2017-11-07T04:05:25.241Z,91.61
2017-11-07T04:06:05.843Z,91.71
2017-11-07T04:06:46.407Z,91.61
2017-11-07T04:07:27.089Z,91.61
2017-11-07T04:08:07.652Z,91.61
2017-11-07T04:08:48.265Z,91.52
2017-11-07T04:09:28.839Z,91.8
2017-11-07T04:10:09.431Z,91.8
2017-11-07T04:10:49.994Z,91.33
2017-11-07T04:11:30.571Z,91.42
2017-11-07T04:12:11.149Z,91.33
2017-11-07T04:12:51.722Z,91.99
2017-11-07T04:13:32.327Z,91.99
2017-11-07T04:14:12.917Z,91.89
2017-11-07T04:14:53.489Z,91.89
2017-11-07T04:15:34.075Z,91.61
2017-11-07T04:16:14.647Z,91.89
2017-11-07T04:16:55.213Z,91.71
2017-11-07T04:17:35.874Z,91.42
2017-11-07T04:18:16.487Z,91.99
2017-11-07T04:18:57.049Z,91.8
2017-11-07T04:19:37.690Z,92.37
2017-11-07T04:20:18.279Z,92.09
2017-11-07T04:20:58.861Z,92.28
2017-11-07T04:21:39.421Z,92.37
2017-11-07T04:22:20.023Z,92.28
2017-11-07T04:23:00.597Z,92.18
2017-11-07T04:23:41.204Z,92.18
2017-11-07T04:24:21.794Z,91.99
2017-11-07T04:25:02.354Z,92.09
2017-11-07T04:25:42.953Z,92.18
2017-11-07T04:26:23.548Z,92.28
2017-11-07T04:27:04.120Z,92.28
2017-11-07T04:27:44.711Z,91.61
2017-11-07T04:28:25.302Z,92.37
2017-11-07T04:29:05.864Z,92.47
2017-11-07T04:29:46.454Z,92.09
2017-11-07T04:30:27.059Z,92.28
2017-11-07T04:31:07.641Z,91.89
2017-11-07T04:31:48.215Z,92.09
2017-11-07T04:32:28.795Z,92.28
2017-11-07T04:33:09.393Z,92.28
2017-11-07T04:33:50.028Z,92.18
2017-11-07T04:34:30.605Z,92.09
2017-11-07T04:35:11.226Z,92.18
2017-11-07T04:35:51.794Z,92.28
2017-11-07T04:36:32.381Z,92.09
2017-11-07T04:37:12.984Z,91.99
2017-11-07T04:37:53.577Z,91.99
2017-11-07T04:38:34.159Z,92.18
2017-11-07T04:39:14.745Z,92.09
2017-11-07T04:39:55.328Z,92.28
2017-11-07T04:40:35.918Z,91.99
2017-11-07T04:41:16.497Z,91.99
2017-11-07T04:41:57.089Z,92.09
2017-11-07T04:42:37.664Z,92.09
2017-11-07T04:43:18.248Z,92.37
2017-11-07T04:43:58.845Z,92.47
2017-11-07T04:44:39.436Z,92.37
2017-11-07T04:45:20.028Z,92.47
2017-11-07T04:46:00.611Z,92.28
2017-11-07T04:46:41.245Z,92.37
2017-11-07T04:47:21.843Z,92.37
2017-11-07T04:48:02.423Z,92.09
2017-11-07T04:48:43.006Z,92.37
2017-11-07T04:49:23.573Z,92.18
2017-11-07T04:50:04.177Z,91.89
2017-11-07T04:50:44.780Z,92.37
2017-11-07T04:51:25.380Z,91.99
2017-11-07T04:52:05.959Z,91.89
2017-11-07T04:52:46.552Z,91.52
2017-11-07T04:53:27.138Z,91.89
2017-11-07T04:54:07.743Z,91.89
2017-11-07T04:54:48.344Z,91.61
2017-11-07T04:55:28.917Z,91.89
2017-11-07T04:56:09.506Z,91.61
2017-11-07T04:56:50.098Z,91.71
2017-11-07T04:57:30.677Z,91.89
2017-11-07T04:58:11.252Z,91.99
2017-11-07T04:58:51.820Z,91.52
2017-11-07T04:59:32.406Z,91.99
2017-11-07T05:00:13.007Z,91.42
2017-11-07T05:00:53.608Z,91.61
2017-11-07T05:01:34.196Z,91.61
2017-11-07T05:02:14.793Z,91.89
2017-11-07T05:02:55.377Z,91.89
2017-11-07T05:03:35.973Z,91.61
2017-11-07T05:04:16.576Z,91.8
2017-11-07T05:04:57.136Z,91.61
2017-11-07T05:05:37.717Z,91.85
2017-11-07T05:06:18.306Z,91.8
2017-11-07T05:06:58.878Z,91.89
2017-11-07T05:07:39.459Z,91.8
2017-11-07T05:08:20.032Z,91.61
2017-11-07T05:09:00.623Z,91.61
2017-11-07T05:09:41.197Z,91.89
2017-11-07T05:10:21.772Z,91.8
2017-11-07T05:11:02.415Z,91.56
2017-11-07T05:11:42.972Z,91.71
2017-11-07T05:12:23.586Z,91.71
2017-11-07T05:13:04.197Z,91.75
2017-11-07T05:13:44.727Z,91.38
2017-11-07T05:14:25.327Z,91.42
2017-11-07T05:15:05.941Z,91.52
2017-11-07T05:15:46.512Z,91.56
2017-11-07T05:16:27.092Z,91.42
2017-11-07T05:17:07.708Z,91.52
2017-11-07T05:17:48.262Z,91.61
2017-11-07T05:18:28.850Z,91.61
2017-11-07T05:19:09.402Z,91.89
2017-11-07T05:19:49.974Z,91.89
2017-11-07T05:20:30.567Z,91.71
2017-11-07T05:21:11.184Z,91.8
2017-11-07T05:21:51.771Z,91.61
2017-11-07T05:22:32.386Z,91.14
2017-11-07T05:23:12.982Z,91.24
2017-11-07T05:23:53.549Z,91.19
2017-11-07T05:24:34.138Z,91.24
2017-11-07T05:25:14.733Z,91.33
2017-11-07T05:25:55.308Z,90.95
2017-11-07T05:26:35.891Z,91.42
2017-11-07T05:27:16.597Z,91.04
2017-11-07T05:27:57.174Z,91.42
2017-11-07T05:28:37.768Z,91.33
2017-11-07T05:29:18.363Z,90.66
2017-11-07T05:29:58.942Z,91.33
2017-11-07T05:30:39.551Z,91.42
2017-11-07T05:31:20.157Z,91.33
2017-11-07T05:32:00.764Z,91.42
2017-11-07T05:32:41.326Z,90.95
2017-11-07T05:33:21.947Z,91.24
2017-11-07T05:34:02.506Z,90.95
2017-11-07T05:34:43.110Z,90.95
2017-11-07T05:35:23.801Z,90.95
2017-11-07T05:36:04.326Z,90.95
2017-11-07T05:36:44.887Z,90.95
2017-11-07T05:37:25.472Z,90.76
2017-11-07T05:38:06.032Z,90.57
2017-11-07T05:38:46.640Z,90.76
2017-11-07T05:39:27.192Z,90.76
2017-11-07T05:40:07.779Z,90.66
2017-11-07T05:40:48.388Z,90.76
2017-11-07T05:41:28.951Z,90.66
2017-11-07T05:42:09.532Z,90.95
2017-11-07T05:42:50.101Z,90.81
2017-11-07T05:43:30.672Z,90.57
2017-11-07T05:44:11.249Z,90.76
2017-11-07T05:44:51.818Z,90.38
2017-11-07T05:45:32.425Z,90.33
2017-11-07T05:46:12.992Z,90.19
2017-11-07T05:46:53.628Z,90.38
2017-11-07T05:47:34.215Z,90.14
2017-11-07T05:48:14.805Z,90.66
2017-11-07T05:48:55.388Z,90.52
2017-11-07T05:49:35.978Z,91.42
2017-11-07T05:50:16.558Z,91.56
2017-11-07T05:50:57.145Z,91.61
2017-11-07T05:51:37.726Z,91.52
2017-11-07T05:52:18.330Z,91.8
2017-11-07T05:52:58.888Z,91.71
2017-11-07T05:53:39.533Z,91.89
2017-11-07T05:54:20.139Z,91.52
2017-11-07T05:55:00.758Z,91.33
2017-11-07T05:55:41.366Z,91.42
2017-11-07T05:56:21.954Z,90.95
2017-11-07T05:57:02.548Z,90.66
2017-11-07T05:57:43.146Z,90.66
2017-11-07T05:58:23.789Z,90.76
2017-11-07T05:59:04.372Z,90.85
2017-11-07T05:59:44.949Z,90.76
2017-11-07T06:00:25.552Z,90.28
2017-11-07T06:01:06.147Z,90
2017-11-07T06:01:46.714Z,90.47
2017-11-07T06:02:27.370Z,89.81
2017-11-07T06:03:07.977Z,90
2017-11-07T06:03:48.552Z,90.38
2017-11-07T06:04:29.123Z,89.62
2017-11-07T06:05:09.676Z,89.81
2017-11-07T06:05:50.278Z,89.9
2017-11-07T06:06:30.857Z,89.53
2017-11-07T06:07:11.423Z,89.53
2017-11-07T06:07:52.000Z,90.09
2017-11-07T06:08:32.584Z,89.62
2017-11-07T06:09:13.185Z,89.43
2017-11-07T06:09:53.763Z,89.43
2017-11-07T06:10:34.336Z,89.14
2017-11-07T06:11:14.933Z,89.05
2017-11-07T06:11:55.533Z,89.14
2017-11-07T06:12:36.112Z,89.05
2017-11-07T06:13:16.716Z,89.24
2017-11-07T06:13:57.327Z,88.86
2017-11-07T06:14:37.929Z,88.72
2017-11-07T06:15:18.531Z,89
2017-11-07T06:15:59.108Z,88.86
2017-11-07T06:16:39.689Z,89
2017-11-07T06:18:53.013Z,89.24
2017-11-07T06:19:33.589Z,93.04
2017-11-07T06:20:14.168Z,98.35
2017-11-07T06:20:54.753Z,99.99
2017-11-07T06:21:35.319Z,99.99
2017-11-07T06:22:15.910Z,99.99
2017-11-07T06:22:56.481Z,99.99
2017-11-07T06:23:37.054Z,99.99
2017-11-07T06:24:17.650Z,99.99
2017-11-07T06:24:58.213Z,99.84
2017-11-07T06:25:38.785Z,97.93
2017-11-07T06:26:19.345Z,96.65
2017-11-07T06:26:59.938Z,94.74
2017-11-07T06:27:40.481Z,93.51
2017-11-07T06:28:21.063Z,92.18
2017-11-07T06:29:01.669Z,91.22
2017-11-07T06:29:42.224Z,89.75
2017-11-07T06:30:22.799Z,88.13
2017-11-07T06:31:03.393Z,87.37
2017-11-07T06:31:43.991Z,86.42
2017-11-07T06:32:24.574Z,85.28
2017-11-07T06:33:05.153Z,82.7
2017-11-07T06:33:45.726Z,80.42
2017-11-07T06:34:26.311Z,79.19
2017-11-07T06:35:06.913Z,78.42
2017-11-07T06:35:47.488Z,77.91
2017-11-07T06:36:28.325Z,77.91
2017-11-07T06:37:08.927Z,78
2017-11-07T06:37:49.530Z,77.77
2017-11-07T06:38:30.149Z,77.77
2017-11-07T06:39:10.720Z,78.06
2017-11-07T06:39:51.551Z,78.63
2017-11-07T06:40:32.130Z,79.3
2017-11-07T06:41:12.722Z,79.16
2017-11-07T06:41:53.322Z,79.44
2017-11-07T06:42:33.902Z,79.92
2017-11-07T06:43:14.491Z,80.49
2017-11-07T06:43:55.064Z,80.3
2017-11-07T06:44:35.651Z,80.77
2017-11-07T06:45:16.229Z,81.06
2017-11-07T06:45:56.803Z,81.12
2017-11-07T06:46:37.378Z,81.78
2017-11-07T06:47:17.949Z,82.35
2017-11-07T06:47:58.529Z,82.35
2017-11-07T06:48:39.120Z,82.92
2017-11-07T06:49:19.696Z,82.54
2017-11-07T06:50:00.368Z,83.39
2017-11-07T06:50:40.955Z,82.45
2017-11-07T06:51:21.543Z,83.49
2017-11-07T06:52:02.132Z,83.3
2017-11-07T06:52:42.695Z,83.59
2017-11-07T06:53:23.320Z,83.78
2017-11-07T06:54:03.894Z,83.59
2017-11-07T06:54:44.482Z,84.16
2017-11-07T06:55:25.079Z,84.21
2017-11-07T06:56:05.665Z,84.49
2017-11-07T06:56:46.332Z,84.4
2017-11-07T06:57:26.915Z,84.87
2017-11-07T06:58:07.558Z,84.78
2017-11-07T06:58:48.148Z,85.25
2017-11-07T06:59:28.720Z,84.97
2017-11-07T07:00:09.289Z,85.44
2017-11-07T07:00:49.878Z,85.53
2017-11-07T07:01:30.487Z,85.44
2017-11-07T07:02:11.174Z,85.72
2017-11-07T07:02:51.754Z,85.53
2017-11-07T07:03:32.389Z,85.44
2017-11-07T07:04:12.964Z,86.01
2017-11-07T07:04:53.557Z,85.91
2017-11-07T07:05:34.121Z,85.91
2017-11-07T07:06:14.719Z,86.2
2017-11-07T07:06:55.311Z,85.82
2017-11-07T07:07:36.164Z,86.11
2017-11-07T07:08:16.856Z,86.01
2017-11-07T07:08:57.445Z,86.11
2017-11-07T07:09:38.036Z,85.82
2017-11-07T07:10:18.640Z,86.68
2017-11-07T07:10:59.226Z,86.58
2017-11-07T07:11:39.877Z,86.58
2017-11-07T07:12:20.477Z,86.58
2017-11-07T07:13:01.102Z,86.3
2017-11-07T07:13:41.677Z,86.2
2017-11-07T07:14:22.244Z,86.2
2017-11-07T07:15:02.849Z,86.77
2017-11-07T07:15:43.514Z,86.58
2017-11-07T07:16:24.352Z,86.68
2017-11-07T07:17:04.950Z,86.68
2017-11-07T07:17:45.522Z,86.77
2017-11-07T07:18:26.126Z,86.87
2017-11-07T07:19:06.688Z,86.49
2017-11-07T07:19:47.271Z,86.77
2017-11-07T07:20:28.106Z,86.96
2017-11-07T07:21:08.746Z,86.77
2017-11-07T07:21:49.355Z,87.15
2017-11-07T07:22:30.054Z,86.87
2017-11-07T07:23:10.632Z,87.05
2017-11-07T07:23:51.226Z,87.24
2017-11-07T07:24:31.799Z,87.15
2017-11-07T07:25:12.450Z,86.96
2017-11-07T07:25:53.109Z,87.05
2017-11-07T07:26:33.696Z,87.05
2017-11-07T07:27:14.306Z,87.24
2017-11-07T07:27:54.906Z,87.15
2017-11-07T07:28:35.510Z,87.62
2017-11-07T07:29:16.083Z,87.62
2017-11-07T07:29:56.775Z,87.72
2017-11-07T07:30:37.309Z,87.53
2017-11-07T07:31:17.896Z,87.15
2017-11-07T07:31:58.714Z,87.15
2017-11-07T07:32:39.342Z,87.24
2017-11-07T07:33:19.923Z,87.43
2017-11-07T07:34:00.484Z,87.72
2017-11-07T07:34:41.168Z,87.53
2017-11-07T07:35:21.771Z,87.53
2017-11-07T07:36:02.394Z,87.24
2017-11-07T07:36:42.954Z,87.53
2017-11-07T07:37:23.529Z,87.43
2017-11-07T07:38:04.154Z,87.82
2017-11-07T07:38:44.734Z,87.72
2017-11-07T07:39:25.327Z,88.1
2017-11-07T07:40:05.894Z,88.1
2017-11-07T07:40:46.468Z,88.01
2017-11-07T07:41:27.057Z,87.91
2017-11-07T07:42:07.618Z,88.1
2017-11-07T07:42:48.197Z,88.01
2017-11-07T07:43:28.884Z,87.72
2017-11-07T07:44:09.371Z,87.72
2017-11-07T07:44:49.948Z,88.1
2017-11-07T07:45:30.626Z,87.91
2017-11-07T07:46:11.205Z,87.62
2017-11-07T07:46:51.780Z,87.91
2017-11-07T07:47:32.380Z,87.91
2017-11-07T07:48:12.995Z,87.91
2017-11-07T07:48:53.584Z,88.01
2017-11-07T07:49:34.211Z,87.82
2017-11-07T07:50:14.804Z,87.82
2017-11-07T07:50:55.373Z,88.29
2017-11-07T07:51:35.956Z,88.57
2017-11-07T07:52:16.545Z,88.57
2017-11-07T07:52:57.146Z,88.48
2017-11-07T07:53:37.728Z,88.48
2017-11-07T07:54:18.305Z,88.57
2017-11-07T07:54:58.884Z,88.48
2017-11-07T07:55:39.459Z,88.2
2017-11-07T07:56:20.064Z,88.29
2017-11-07T07:57:00.640Z,88.39
2017-11-07T07:57:41.239Z,88.67
2017-11-07T07:58:21.822Z,88.2
2017-11-07T07:59:02.426Z,88.29
2017-11-07T07:59:43.000Z,88.57
2017-11-07T08:00:23.581Z,88.57
2017-11-07T08:01:04.173Z,88.48
2017-11-07T08:01:44.774Z,88.48
2017-11-07T08:02:25.387Z,88.39
2017-11-07T08:03:05.969Z,88.39
2017-11-07T08:03:46.550Z,88.2
2017-11-07T08:04:27.132Z,88.48
2017-11-07T08:05:07.696Z,88.34
2017-11-07T08:05:48.289Z,88.24
2017-11-07T08:06:28.883Z,88.53
2017-11-07T08:07:09.494Z,88.43
2017-11-07T08:07:50.083Z,88.34
2017-11-07T08:08:30.665Z,88.24
2017-11-07T08:09:11.248Z,87.86
2017-11-07T08:09:51.850Z,88.24
2017-11-07T08:10:32.458Z,87.95
2017-11-07T08:11:13.041Z,87.43
2017-11-07T08:11:53.612Z,87.05
2017-11-07T08:12:34.185Z,86.86
2017-11-07T08:13:14.784Z,86.71
2017-11-07T08:13:55.346Z,85.66
2017-11-07T08:14:35.984Z,84.28
2017-11-07T08:15:16.590Z,82.57
2017-11-07T08:15:57.181Z,81.09
2017-11-07T08:16:37.755Z,80.04
2017-11-07T08:17:18.323Z,79.13
2017-11-07T08:17:58.902Z,77.89
2017-11-07T08:18:39.525Z,76.98
2017-11-07T08:19:20.091Z,75.93
2017-11-07T08:20:00.693Z,74.92
2017-11-07T08:20:41.293Z,74.16
2017-11-07T08:21:22.055Z,73.49
2017-11-07T08:22:02.646Z,72.92
2017-11-07T08:22:43.215Z,72.63
2017-11-07T08:23:23.794Z,72.48
2017-11-07T08:24:04.398Z,72.28
2017-11-07T08:24:44.990Z,71.81
2017-11-07T08:25:25.569Z,71.33
2017-11-07T08:26:06.157Z,70.95
2017-11-07T08:26:46.733Z,71.14
2017-11-07T08:27:27.382Z,71.33
2017-11-07T08:28:08.064Z,71.23
2017-11-07T08:28:48.559Z,70.86
2017-11-07T08:29:29.157Z,70.67
2017-11-07T08:30:09.746Z,70.28
2017-11-07T08:30:50.352Z,70
2017-11-07T08:31:30.942Z,70.09
2017-11-07T08:32:11.632Z,70.19
2017-11-07T08:32:52.246Z,70.09
2017-11-07T08:33:32.840Z,70.09
2017-11-07T08:34:13.465Z,70.28
2017-11-07T08:34:54.045Z,70.67
2017-11-07T08:35:34.680Z,70.38
2017-11-07T08:36:15.313Z,70.09
2017-11-07T08:36:55.939Z,69.9
2017-11-07T08:37:36.490Z,69.96
2017-11-07T08:38:17.117Z,70.82
2017-11-07T08:38:57.691Z,71.11
2017-11-07T08:39:38.263Z,70.72
2017-11-07T08:40:18.838Z,70.92
2017-11-07T08:40:59.457Z,71.11
2017-11-07T08:41:40.120Z,71.04
2017-11-07T08:42:20.708Z,71.14
2017-11-07T08:43:01.287Z,71.11
2017-11-07T08:43:41.862Z,70.82
2017-11-07T08:44:22.439Z,70.15
2017-11-07T08:45:03.044Z,70.25
2017-11-07T08:45:43.604Z,70.82